首页
METAR-TAF:

METAR-TAF

机场 :

重庆江北国际机场

重庆, 中华人民共和国

纬度: 29-31N, 经度: 106-29E, 海拔: 351米

当前天气观测

该预报发布于57分钟前的18:00 UTC
风速4节,风向,在西北北转东北之间变化
温度 8°C
湿度 76%
气压 1019 hPa
能見度: 6000

METAR: ZUCK 231800Z 35002MPS 320V020 6000 NSC 08/04 Q1019 NOSIG

时间: 02:57 (18:57 UTC)

预报

该预报发布于3小时和43分钟前的15:14 UTC
预报有效从23日的 18点(UTC)到 24日的 18点(UTC)
风速6节,风向东北
能見度: 5000
散云层高于4000英尺
轻雾

TAF: ZUCK 231514Z 2318/2418 04003MPS 5000 BR SCT040 TX11/2407Z TN07/2322Z

超过4000个机场的气象观测和天气预报(METAR&TAF报告)。

可查询的气象台以黄色和红色小点在地图上表示。

将鼠标移到小点上方,可查看气象台名称。

然后点击查看天气观测和预报。

如需切换地图:点击带黑十字的绿色按钮放大地图;点击带横线的绿色按钮缩小地图;或者点击绿色箭头查看邻近地区的地图。


METAR-TAF: